EXS67T EGGP-LEAL
Flight info
| Callsign | EXS67T |
|---|---|
| Flight time | 2h 27m |
| Altitude | 37000 |
| Route | REXAM N42 MIDJO P17 BEPHE DCT OSSEP DCT ELNIF DCT ZESPE DCT KLAKI DCT SALCO DCT NENEM DCT BADRU P152 PPN M176 CLS |
| Aircraft | B738/M-SDE2E3FGHIRWXY/LB1 |
Departure
| Time | 2026-05-04 09:34 |
|---|---|
| Airport | Liverpool John Lennon Airport (EGGP) |
Arrival
| Time | 2026-05-04 12:01 |
|---|---|
| Airport | Alicante-Elche Miguel Hernández Airport (LEAL) |
| Time | Latitude | Longitude | Altitude | Speed | Heading |
|---|---|---|---|---|---|
| 2026-05-04 09:07 | 53.33647 | -2.85864 | 86 ft | 0 kts | 355° |
| 2026-05-04 09:26 | 53.33630 | -2.85862 | 88 ft | 3 kts | 355° |
| 2026-05-04 09:26 | 53.33610 | -2.85858 | 87 ft | 4 kts | 326° |
| 2026-05-04 09:26 | 53.33599 | -2.85828 | 88 ft | 3 kts | 265° |
| 2026-05-04 09:26 | 53.33601 | -2.85788 | 86 ft | 2 kts | 265° |
| 2026-05-04 09:27 | 53.33601 | -2.85787 | 86 ft | 0 kts | 265° |
| 2026-05-04 09:27 | 53.33602 | -2.85787 | 86 ft | 0 kts | 265° |
| 2026-05-04 09:28 | 53.33601 | -2.85788 | 86 ft | 0 kts | 265° |
| 2026-05-04 09:28 | 53.33600 | -2.85813 | 89 ft | 6 kts | 265° |
| 2026-05-04 09:28 | 53.33589 | -2.85915 | 87 ft | 11 kts | 234° |
| 2026-05-04 09:29 | 53.33514 | -2.85932 | 86 ft | 10 kts | 168° |
| 2026-05-04 09:29 | 53.33490 | -2.85825 | 83 ft | 13 kts | 87° |
| 2026-05-04 09:29 | 53.33495 | -2.85704 | 85 ft | 18 kts | 86° |
| 2026-05-04 09:29 | 53.33511 | -2.85377 | 86 ft | 21 kts | 85° |
| 2026-05-04 09:30 | 53.33519 | -2.85211 | 85 ft | 21 kts | 85° |
| 2026-05-04 09:30 | 53.33533 | -2.84894 | 84 ft | 20 kts | 85° |
| 2026-05-04 09:30 | 53.33540 | -2.84737 | 84 ft | 20 kts | 85° |
| 2026-05-04 09:30 | 53.33550 | -2.84511 | 77 ft | 19 kts | 85° |
| 2026-05-04 09:31 | 53.33563 | -2.84222 | 77 ft | 18 kts | 85° |
| 2026-05-04 09:31 | 53.33570 | -2.84079 | 66 ft | 18 kts | 85° |
| 2026-05-04 09:31 | 53.33580 | -2.83843 | 72 ft | 24 kts | 85° |
| 2026-05-04 09:31 | 53.33593 | -2.83575 | 70 ft | 23 kts | 85° |
| 2026-05-04 09:32 | 53.33593 | -2.83374 | 66 ft | 15 kts | 111° |
| 2026-05-04 09:32 | 53.33505 | -2.83297 | 76 ft | 15 kts | 176° |
| 2026-05-04 09:34 | 53.33005 | -2.92486 | 2306 ft | 200 kts | 265° |
| 2026-05-04 09:34 | 53.32854 | -2.94949 | 2563 ft | 227 kts | 265° |
| 2026-05-04 09:34 | 53.32687 | -2.97675 | 2963 ft | 245 kts | 265° |
| 2026-05-04 09:34 | 53.32506 | -3.00633 | 3387 ft | 263 kts | 265° |
| 2026-05-04 09:35 | 53.32317 | -3.03711 | 4297 ft | 265 kts | 265° |
| 2026-05-04 09:35 | 53.32126 | -3.06811 | 5161 ft | 271 kts | 265° |
| 2026-05-04 09:35 | 53.31937 | -3.09948 | 6127 ft | 272 kts | 264° |
| 2026-05-04 09:35 | 53.31296 | -3.12914 | 6988 ft | 278 kts | 232° |
| 2026-05-04 09:37 | 53.16983 | -3.15209 | 11428 ft | 347 kts | 182° |
| 2026-05-04 09:37 | 53.14561 | -3.15401 | 12240 ft | 348 kts | 183° |
| 2026-05-04 09:38 | 53.12126 | -3.15594 | 13021 ft | 353 kts | 182° |
| 2026-05-04 09:38 | 53.09691 | -3.15778 | 13761 ft | 357 kts | 182° |
| 2026-05-04 09:38 | 53.07178 | -3.15540 | 14422 ft | 361 kts | 164° |
| 2026-05-04 09:38 | 53.04906 | -3.13790 | 15113 ft | 362 kts | 144° |
| 2026-05-04 09:39 | 53.02945 | -3.11254 | 15836 ft | 363 kts | 140° |
| 2026-05-04 09:39 | 53.00956 | -3.08542 | 16523 ft | 367 kts | 140° |
| 2026-05-04 09:39 | 52.98992 | -3.05893 | 17178 ft | 370 kts | 140° |
| 2026-05-04 09:39 | 52.96945 | -3.03183 | 17869 ft | 374 kts | 141° |
| 2026-05-04 09:40 | 52.94921 | -3.00529 | 18501 ft | 377 kts | 142° |
| 2026-05-04 09:40 | 52.92827 | -2.97792 | 19090 ft | 380 kts | 142° |
| 2026-05-04 09:40 | 52.90772 | -2.95107 | 19703 ft | 381 kts | 141° |
| 2026-05-04 09:40 | 52.88686 | -2.92381 | 20310 ft | 384 kts | 141° |
| 2026-05-04 09:41 | 52.86575 | -2.89623 | 20799 ft | 389 kts | 141° |
| 2026-05-04 09:42 | 52.68891 | -2.77800 | 24425 ft | 412 kts | 170° |
| 2026-05-04 09:43 | 52.66046 | -2.77076 | 24818 ft | 415 kts | 169° |
| 2026-05-04 09:43 | 52.63180 | -2.76327 | 25212 ft | 419 kts | 169° |
| 2026-05-04 09:43 | 52.60271 | -2.75796 | 25593 ft | 424 kts | 177° |
| 2026-05-04 09:43 | 52.57311 | -2.76000 | 25988 ft | 427 kts | 182° |
| 2026-05-04 09:44 | 52.54334 | -2.76352 | 26376 ft | 430 kts | 182° |
| 2026-05-04 09:44 | 52.51335 | -2.76663 | 26729 ft | 434 kts | 181° |
| 2026-05-04 09:44 | 52.48313 | -2.76940 | 27126 ft | 435 kts | 182° |
| 2026-05-04 09:46 | 52.26912 | -2.78768 | 29715 ft | 450 kts | 181° |
| 2026-05-04 09:46 | 52.23777 | -2.79037 | 30099 ft | 450 kts | 182° |
| 2026-05-04 09:46 | 52.20670 | -2.79304 | 30608 ft | 446 kts | 182° |
| 2026-05-04 09:47 | 52.17572 | -2.79570 | 30913 ft | 447 kts | 182° |
| 2026-05-04 09:47 | 52.14462 | -2.79836 | 31169 ft | 448 kts | 181° |
| 2026-05-04 09:49 | 51.92880 | -2.81674 | 33829 ft | 439 kts | 182° |
| 2026-05-04 09:49 | 51.89811 | -2.81935 | 33932 ft | 444 kts | 182° |
| 2026-05-04 09:49 | 51.86723 | -2.82195 | 34202 ft | 443 kts | 181° |
| 2026-05-04 09:51 | 51.68490 | -2.85915 | 35832 ft | 439 kts | 187° |
| 2026-05-04 09:51 | 51.65463 | -2.86560 | 36002 ft | 440 kts | 187° |
| 2026-05-04 09:51 | 51.62429 | -2.87199 | 36273 ft | 439 kts | 187° |
| 2026-05-04 09:51 | 51.59400 | -2.87836 | 36422 ft | 440 kts | 187° |
| 2026-05-04 09:52 | 51.56350 | -2.88478 | 36594 ft | 441 kts | 187° |
| 2026-05-04 09:52 | 51.53322 | -2.89117 | 36879 ft | 439 kts | 187° |
| 2026-05-04 09:52 | 51.50343 | -2.89748 | 37013 ft | 435 kts | 187° |
| 2026-05-04 09:53 | 51.44282 | -2.91033 | 37020 ft | 439 kts | 187° |
| 2026-05-04 09:53 | 51.38180 | -2.92324 | 37020 ft | 445 kts | 187° |
| 2026-05-04 09:54 | 51.32054 | -2.93616 | 37024 ft | 448 kts | 187° |
| 2026-05-04 09:54 | 51.25902 | -2.94910 | 36998 ft | 444 kts | 187° |
| 2026-05-04 09:55 | 51.19812 | -2.96187 | 37005 ft | 439 kts | 187° |
| 2026-05-04 09:55 | 51.13767 | -2.97450 | 37005 ft | 437 kts | 187° |
| 2026-05-04 09:56 | 51.07744 | -2.98706 | 37007 ft | 436 kts | 187° |
| 2026-05-04 09:56 | 51.01705 | -2.99962 | 37021 ft | 441 kts | 187° |
| 2026-05-04 09:57 | 50.95574 | -3.01234 | 37010 ft | 446 kts | 187° |
| 2026-05-04 09:57 | 50.89395 | -3.02513 | 37013 ft | 449 kts | 187° |
| 2026-05-04 09:58 | 50.83197 | -3.03792 | 37006 ft | 449 kts | 187° |
| 2026-05-04 09:58 | 50.77075 | -3.05052 | 37005 ft | 442 kts | 187° |
| 2026-05-04 10:00 | 50.52822 | -3.10011 | 37030 ft | 446 kts | 187° |
| 2026-05-04 10:02 | 50.31560 | -3.16534 | 37014 ft | 439 kts | 202° |
| 2026-05-04 10:04 | 50.11831 | -3.29197 | 37027 ft | 438 kts | 201° |
| 2026-05-04 10:04 | 50.06164 | -3.32757 | 37016 ft | 439 kts | 201° |
| 2026-05-04 10:05 | 50.00497 | -3.36311 | 37016 ft | 440 kts | 201° |
| 2026-05-04 10:05 | 49.94817 | -3.39864 | 37015 ft | 440 kts | 201° |
| 2026-05-04 10:06 | 49.89131 | -3.43413 | 37023 ft | 440 kts | 201° |
| 2026-05-04 10:06 | 49.83449 | -3.46951 | 37015 ft | 440 kts | 201° |
| 2026-05-04 10:08 | 49.65790 | -3.52573 | 37014 ft | 437 kts | 177° |
| 2026-05-04 10:08 | 49.62756 | -3.52306 | 37014 ft | 436 kts | 177° |
| 2026-05-04 10:08 | 49.56699 | -3.51778 | 37010 ft | 435 kts | 177° |
| 2026-05-04 10:09 | 49.50652 | -3.51295 | 37012 ft | 434 kts | 177° |
| 2026-05-04 10:09 | 49.44619 | -3.50842 | 37014 ft | 433 kts | 177° |
| 2026-05-04 10:10 | 49.38605 | -3.50401 | 37011 ft | 433 kts | 177° |
| 2026-05-04 10:10 | 49.32592 | -3.49962 | 37014 ft | 432 kts | 177° |
| 2026-05-04 10:11 | 49.26584 | -3.49523 | 37013 ft | 432 kts | 177° |
| 2026-05-04 10:11 | 49.20589 | -3.49086 | 37016 ft | 432 kts | 177° |
| 2026-05-04 10:12 | 49.14583 | -3.48649 | 37017 ft | 432 kts | 177° |
| 2026-05-04 10:12 | 49.08623 | -3.48217 | 37018 ft | 432 kts | 177° |
| 2026-05-04 10:13 | 49.02610 | -3.47781 | 37017 ft | 433 kts | 177° |
| 2026-05-04 10:13 | 48.96583 | -3.47346 | 37015 ft | 434 kts | 177° |
| 2026-05-04 10:14 | 48.90551 | -3.46911 | 37021 ft | 434 kts | 177° |
| 2026-05-04 10:16 | 48.66328 | -3.45176 | 37023 ft | 437 kts | 177° |
| 2026-05-04 10:16 | 48.61244 | -3.44814 | 37014 ft | 437 kts | 177° |
| 2026-05-04 10:17 | 48.55181 | -3.44383 | 37011 ft | 436 kts | 178° |
| 2026-05-04 10:19 | 48.31003 | -3.42676 | 36988 ft | 434 kts | 178° |
| 2026-05-04 10:19 | 48.24981 | -3.42253 | 36989 ft | 433 kts | 178° |
| 2026-05-04 10:20 | 48.18962 | -3.41832 | 36993 ft | 433 kts | 178° |
| 2026-05-04 10:20 | 48.12982 | -3.41413 | 36983 ft | 433 kts | 178° |
| 2026-05-04 10:21 | 48.06963 | -3.40994 | 36986 ft | 433 kts | 178° |
| 2026-05-04 10:21 | 48.00940 | -3.40575 | 36987 ft | 434 kts | 178° |
| 2026-05-04 10:22 | 47.91882 | -3.39947 | 36987 ft | 435 kts | 178° |
| 2026-05-04 10:23 | 47.85840 | -3.39529 | 36987 ft | 435 kts | 178° |
| 2026-05-04 10:25 | 47.61637 | -3.37865 | 36994 ft | 435 kts | 178° |
| 2026-05-04 10:25 | 47.55599 | -3.37453 | 36992 ft | 434 kts | 178° |
| 2026-05-04 10:26 | 47.49567 | -3.37041 | 36993 ft | 434 kts | 178° |
| 2026-05-04 10:26 | 47.43541 | -3.36631 | 36991 ft | 433 kts | 178° |
| 2026-05-04 10:27 | 47.37518 | -3.36223 | 36994 ft | 433 kts | 178° |
| 2026-05-04 10:27 | 47.31508 | -3.35816 | 36998 ft | 432 kts | 178° |
| 2026-05-04 10:28 | 47.25499 | -3.35410 | 36992 ft | 432 kts | 178° |
| 2026-05-04 10:28 | 47.19495 | -3.35005 | 36997 ft | 432 kts | 178° |
| 2026-05-04 10:29 | 47.13494 | -3.34601 | 36996 ft | 431 kts | 178° |
| 2026-05-04 10:29 | 47.07501 | -3.34199 | 37000 ft | 431 kts | 178° |
| 2026-05-04 10:30 | 47.01507 | -3.33798 | 37000 ft | 431 kts | 178° |
| 2026-05-04 10:30 | 46.95521 | -3.33398 | 37003 ft | 431 kts | 178° |
| 2026-05-04 10:31 | 46.89535 | -3.32999 | 37000 ft | 431 kts | 178° |
| 2026-05-04 10:32 | 46.68618 | -3.31612 | 37001 ft | 431 kts | 178° |
| 2026-05-04 10:33 | 46.62630 | -3.31216 | 37005 ft | 431 kts | 178° |
| 2026-05-04 10:33 | 46.56637 | -3.30822 | 37002 ft | 431 kts | 178° |
| 2026-05-04 10:34 | 46.50647 | -3.30428 | 37003 ft | 431 kts | 179° |
| 2026-05-04 10:34 | 46.44650 | -3.30035 | 36996 ft | 431 kts | 179° |
| 2026-05-04 10:35 | 46.38660 | -3.29643 | 37002 ft | 431 kts | 179° |
| 2026-05-04 10:35 | 46.32669 | -3.29252 | 37001 ft | 431 kts | 179° |
| 2026-05-04 10:36 | 46.26683 | -3.28862 | 37001 ft | 431 kts | 179° |
| 2026-05-04 10:36 | 46.20694 | -3.28473 | 37004 ft | 431 kts | 179° |
| 2026-05-04 10:37 | 46.14711 | -3.28085 | 37002 ft | 430 kts | 179° |
| 2026-05-04 10:37 | 46.08767 | -3.27700 | 37008 ft | 430 kts | 179° |
| 2026-05-04 10:39 | 45.87857 | -3.26354 | 37009 ft | 429 kts | 179° |
| 2026-05-04 10:40 | 45.81885 | -3.25971 | 37007 ft | 429 kts | 179° |
| 2026-05-04 10:40 | 45.75921 | -3.25590 | 37005 ft | 429 kts | 179° |
| 2026-05-04 10:41 | 45.69960 | -3.25210 | 37005 ft | 429 kts | 179° |
| 2026-05-04 10:41 | 45.64002 | -3.24830 | 37008 ft | 429 kts | 179° |
| 2026-05-04 10:42 | 45.58040 | -3.24452 | 37001 ft | 429 kts | 179° |
| 2026-05-04 10:42 | 45.52083 | -3.24074 | 37003 ft | 428 kts | 179° |
| 2026-05-04 10:43 | 45.46123 | -3.23697 | 37009 ft | 428 kts | 179° |
| 2026-05-04 10:45 | 45.22337 | -3.22200 | 37003 ft | 429 kts | 179° |
| 2026-05-04 10:45 | 45.16379 | -3.21827 | 37010 ft | 428 kts | 179° |
| 2026-05-04 10:46 | 45.10431 | -3.21455 | 37004 ft | 428 kts | 179° |
| 2026-05-04 10:46 | 45.04485 | -3.21085 | 37008 ft | 427 kts | 179° |
| 2026-05-04 10:47 | 44.98548 | -3.20715 | 37010 ft | 427 kts | 179° |
| 2026-05-04 10:47 | 44.92618 | -3.20347 | 37005 ft | 427 kts | 180° |
| 2026-05-04 10:49 | 44.68939 | -3.18885 | 37014 ft | 427 kts | 180° |
| 2026-05-04 10:50 | 44.62971 | -3.18518 | 37012 ft | 427 kts | 180° |
| 2026-05-04 10:52 | 44.39259 | -3.17069 | 37021 ft | 427 kts | 180° |
| 2026-05-04 10:52 | 44.33319 | -3.16707 | 37023 ft | 427 kts | 180° |
| 2026-05-04 10:54 | 44.09561 | -3.15259 | 37019 ft | 427 kts | 178° |
| 2026-05-04 10:56 | 43.91749 | -3.00019 | 37026 ft | 441 kts | 145° |
| 2026-05-04 10:56 | 43.89369 | -2.97322 | 37025 ft | 442 kts | 145° |
| 2026-05-04 10:57 | 43.84593 | -2.91965 | 37027 ft | 442 kts | 145° |
| 2026-05-04 10:57 | 43.79804 | -2.86618 | 37019 ft | 442 kts | 145° |
| 2026-05-04 10:58 | 43.75022 | -2.81286 | 37030 ft | 441 kts | 145° |
| 2026-05-04 10:58 | 43.70261 | -2.75917 | 37023 ft | 442 kts | 144° |
| 2026-05-04 10:59 | 43.65516 | -2.70503 | 37030 ft | 442 kts | 145° |
| 2026-05-04 10:59 | 43.60730 | -2.65199 | 37019 ft | 441 kts | 146° |
| 2026-05-04 11:00 | 43.55968 | -2.59965 | 37031 ft | 440 kts | 146° |
| 2026-05-04 11:02 | 43.36747 | -2.38843 | 37021 ft | 442 kts | 146° |
| 2026-05-04 11:05 | 43.01451 | -2.00458 | 37013 ft | 435 kts | 147° |
| 2026-05-04 11:06 | 42.96723 | -1.95346 | 37001 ft | 433 kts | 147° |
| 2026-05-04 11:06 | 42.91996 | -1.90244 | 36988 ft | 433 kts | 148° |
| 2026-05-04 11:10 | 42.55517 | -1.66218 | 36958 ft | 419 kts | 176° |
| 2026-05-04 11:12 | 42.32473 | -1.61155 | 36956 ft | 418 kts | 176° |
| 2026-05-04 11:12 | 42.26746 | -1.59897 | 36958 ft | 417 kts | 176° |
| 2026-05-04 11:13 | 42.21015 | -1.58642 | 36955 ft | 416 kts | 176° |
| 2026-05-04 11:13 | 42.15309 | -1.57393 | 36945 ft | 415 kts | 176° |
| 2026-05-04 11:14 | 42.09621 | -1.56151 | 36953 ft | 413 kts | 176° |
| 2026-05-04 11:16 | 41.86998 | -1.51233 | 36941 ft | 410 kts | 177° |
| 2026-05-04 11:16 | 41.81412 | -1.50025 | 36950 ft | 409 kts | 177° |
| 2026-05-04 11:17 | 41.75790 | -1.48811 | 36925 ft | 409 kts | 177° |
| 2026-05-04 11:19 | 41.53306 | -1.43975 | 36933 ft | 409 kts | 177° |
| 2026-05-04 11:19 | 41.47686 | -1.42771 | 36941 ft | 409 kts | 177° |
| 2026-05-04 11:20 | 41.42066 | -1.41570 | 36953 ft | 409 kts | 177° |
| 2026-05-04 11:20 | 41.36434 | -1.40369 | 36955 ft | 411 kts | 177° |
| 2026-05-04 11:22 | 41.13882 | -1.35564 | 36957 ft | 410 kts | 178° |
| 2026-05-04 11:23 | 41.08247 | -1.34366 | 36951 ft | 410 kts | 178° |
| 2026-05-04 11:25 | 40.88509 | -1.30183 | 36933 ft | 410 kts | 178° |
| 2026-05-04 11:25 | 40.82895 | -1.28836 | 36957 ft | 412 kts | 175° |
| 2026-05-04 11:27 | 40.57655 | -1.21878 | 36984 ft | 412 kts | 175° |
| 2026-05-04 11:28 | 40.52032 | -1.20361 | 36995 ft | 412 kts | 175° |
| 2026-05-04 11:28 | 40.46409 | -1.18846 | 36971 ft | 412 kts | 176° |
| 2026-05-04 11:29 | 40.43604 | -1.18090 | 36859 ft | 411 kts | 176° |
| 2026-05-04 11:29 | 40.40852 | -1.17348 | 36594 ft | 405 kts | 176° |
| 2026-05-04 11:29 | 40.38113 | -1.16608 | 36204 ft | 400 kts | 176° |
| 2026-05-04 11:29 | 40.35408 | -1.15879 | 35886 ft | 394 kts | 176° |
| 2026-05-04 11:31 | 40.17142 | -1.10994 | 33194 ft | 371 kts | 176° |
| 2026-05-04 11:33 | 39.99960 | -1.06422 | 30721 ft | 350 kts | 177° |
| 2026-05-04 11:33 | 39.97578 | -1.05790 | 30388 ft | 347 kts | 178° |
| 2026-05-04 11:33 | 39.95222 | -1.05167 | 30048 ft | 344 kts | 178° |
| 2026-05-04 11:34 | 39.92888 | -1.04549 | 29686 ft | 342 kts | 178° |
| 2026-05-04 11:34 | 39.90562 | -1.03931 | 29327 ft | 339 kts | 178° |
| 2026-05-04 11:34 | 39.88268 | -1.03314 | 28980 ft | 335 kts | 177° |
| 2026-05-04 11:34 | 39.85994 | -1.02701 | 28644 ft | 332 kts | 178° |
| 2026-05-04 11:35 | 39.83742 | -1.02095 | 28293 ft | 329 kts | 177° |
| 2026-05-04 11:35 | 39.81509 | -1.01495 | 27961 ft | 326 kts | 178° |
| 2026-05-04 11:35 | 39.79288 | -1.00899 | 27584 ft | 324 kts | 178° |
| 2026-05-04 11:35 | 39.77093 | -1.00310 | 27305 ft | 320 kts | 178° |
| 2026-05-04 11:36 | 39.74917 | -0.99728 | 26955 ft | 319 kts | 178° |
| 2026-05-04 11:36 | 39.72750 | -0.99148 | 26629 ft | 317 kts | 178° |
| 2026-05-04 11:36 | 39.70601 | -0.98580 | 26303 ft | 314 kts | 179° |
| 2026-05-04 11:36 | 39.68464 | -0.98167 | 25987 ft | 309 kts | 182° |
| 2026-05-04 11:37 | 39.66333 | -0.97856 | 25668 ft | 307 kts | 182° |
| 2026-05-04 11:37 | 39.64209 | -0.97571 | 25337 ft | 307 kts | 182° |
| 2026-05-04 11:37 | 39.62083 | -0.97285 | 25053 ft | 310 kts | 182° |
| 2026-05-04 11:37 | 39.59928 | -0.96996 | 24722 ft | 319 kts | 182° |
| 2026-05-04 11:38 | 39.57702 | -0.96691 | 24392 ft | 323 kts | 182° |
| 2026-05-04 11:38 | 39.55470 | -0.96375 | 24026 ft | 322 kts | 182° |
| 2026-05-04 11:38 | 39.53243 | -0.96053 | 23711 ft | 322 kts | 181° |
| 2026-05-04 11:38 | 39.51012 | -0.95727 | 23293 ft | 322 kts | 181° |
| 2026-05-04 11:39 | 39.48792 | -0.95405 | 22936 ft | 319 kts | 181° |
| 2026-05-04 11:39 | 39.46595 | -0.95085 | 22590 ft | 317 kts | 181° |
| 2026-05-04 11:40 | 39.33720 | -0.93213 | 20612 ft | 302 kts | 181° |
| 2026-05-04 11:41 | 39.31643 | -0.92901 | 20328 ft | 299 kts | 181° |
| 2026-05-04 11:41 | 39.29584 | -0.92606 | 20016 ft | 297 kts | 182° |
| 2026-05-04 11:41 | 39.27534 | -0.92312 | 19705 ft | 296 kts | 182° |
| 2026-05-04 11:41 | 39.25494 | -0.92021 | 19401 ft | 294 kts | 181° |
| 2026-05-04 11:42 | 39.23458 | -0.91731 | 19093 ft | 294 kts | 181° |
| 2026-05-04 11:42 | 39.21432 | -0.91441 | 18782 ft | 293 kts | 181° |
| 2026-05-04 11:42 | 39.19411 | -0.91150 | 18481 ft | 292 kts | 181° |
| 2026-05-04 11:42 | 39.17396 | -0.90861 | 18164 ft | 291 kts | 181° |
| 2026-05-04 11:43 | 39.15388 | -0.90572 | 17828 ft | 290 kts | 181° |
| 2026-05-04 11:43 | 39.13393 | -0.90284 | 17520 ft | 289 kts | 181° |
| 2026-05-04 11:43 | 39.11426 | -0.90001 | 17173 ft | 287 kts | 181° |
| 2026-05-04 11:43 | 39.09447 | -0.89717 | 16875 ft | 285 kts | 181° |
| 2026-05-04 11:44 | 39.07482 | -0.89435 | 16595 ft | 283 kts | 181° |
| 2026-05-04 11:44 | 39.05528 | -0.89153 | 16308 ft | 282 kts | 181° |
| 2026-05-04 11:44 | 39.03580 | -0.88872 | 15986 ft | 281 kts | 181° |
| 2026-05-04 11:44 | 39.01646 | -0.88594 | 15715 ft | 279 kts | 181° |
| 2026-05-04 11:45 | 38.99723 | -0.88319 | 15422 ft | 277 kts | 181° |
| 2026-05-04 11:45 | 38.97809 | -0.88045 | 15132 ft | 276 kts | 181° |
| 2026-05-04 11:45 | 38.95901 | -0.87773 | 14849 ft | 275 kts | 181° |
| 2026-05-04 11:45 | 38.94003 | -0.87501 | 14562 ft | 275 kts | 181° |
| 2026-05-04 11:46 | 38.92105 | -0.87231 | 14283 ft | 274 kts | 181° |
| 2026-05-04 11:46 | 38.90205 | -0.86959 | 13994 ft | 274 kts | 181° |
| 2026-05-04 11:46 | 38.88307 | -0.86689 | 13671 ft | 274 kts | 180° |
| 2026-05-04 11:46 | 38.86413 | -0.86418 | 13369 ft | 274 kts | 180° |
| 2026-05-04 11:47 | 38.84521 | -0.86148 | 13054 ft | 275 kts | 180° |
| 2026-05-04 11:47 | 38.82620 | -0.85877 | 12765 ft | 274 kts | 180° |
| 2026-05-04 11:47 | 38.80726 | -0.85607 | 12472 ft | 273 kts | 180° |
| 2026-05-04 11:47 | 38.78838 | -0.85337 | 12184 ft | 272 kts | 180° |
| 2026-05-04 11:48 | 38.76960 | -0.85069 | 11892 ft | 271 kts | 180° |
| 2026-05-04 11:48 | 38.75088 | -0.84802 | 11609 ft | 270 kts | 179° |
| 2026-05-04 11:48 | 38.73225 | -0.84537 | 11337 ft | 269 kts | 179° |
| 2026-05-04 11:48 | 38.71370 | -0.84273 | 11050 ft | 268 kts | 179° |
| 2026-05-04 11:49 | 38.69523 | -0.84010 | 10779 ft | 267 kts | 179° |
| 2026-05-04 11:49 | 38.67676 | -0.83747 | 10496 ft | 266 kts | 179° |
| 2026-05-04 11:49 | 38.65834 | -0.83486 | 10221 ft | 266 kts | 179° |
| 2026-05-04 11:49 | 38.63993 | -0.83224 | 9930 ft | 266 kts | 179° |
| 2026-05-04 11:50 | 38.62161 | -0.82963 | 9647 ft | 265 kts | 179° |
| 2026-05-04 11:50 | 38.60945 | -0.82791 | 9457 ft | 265 kts | 179° |
| 2026-05-04 11:50 | 38.59126 | -0.82532 | 9315 ft | 259 kts | 179° |
| 2026-05-04 11:50 | 38.57357 | -0.82279 | 9197 ft | 253 kts | 179° |
| 2026-05-04 11:51 | 38.55627 | -0.82039 | 9064 ft | 246 kts | 181° |
| 2026-05-04 11:51 | 38.54016 | -0.82372 | 8972 ft | 226 kts | 211° |
| 2026-05-04 11:51 | 38.52437 | -0.83951 | 8787 ft | 215 kts | 228° |
| 2026-05-04 11:51 | 38.51446 | -0.85366 | 8582 ft | 213 kts | 229° |
| 2026-05-04 11:52 | 38.50770 | -0.86307 | 8433 ft | 213 kts | 228° |
| 2026-05-04 11:52 | 38.49725 | -0.87648 | 8208 ft | 214 kts | 225° |
| 2026-05-04 11:52 | 38.48620 | -0.88937 | 7979 ft | 216 kts | 223° |
| 2026-05-04 11:52 | 38.47466 | -0.90161 | 7734 ft | 215 kts | 220° |
| 2026-05-04 11:53 | 38.46276 | -0.91318 | 7506 ft | 216 kts | 218° |
| 2026-05-04 11:53 | 38.45046 | -0.92437 | 7277 ft | 217 kts | 216° |
| 2026-05-04 11:53 | 38.43781 | -0.93483 | 7041 ft | 216 kts | 213° |
| 2026-05-04 11:53 | 38.42478 | -0.94443 | 6804 ft | 217 kts | 210° |
| 2026-05-04 11:55 | 38.33498 | -0.94557 | 5401 ft | 242 kts | 103° |
| 2026-05-04 11:55 | 38.33263 | -0.92431 | 5145 ft | 243 kts | 99° |
| 2026-05-04 11:56 | 38.33037 | -0.90305 | 4897 ft | 242 kts | 100° |
| 2026-05-04 11:56 | 38.32771 | -0.88216 | 4845 ft | 236 kts | 102° |
| 2026-05-04 11:56 | 38.32475 | -0.86102 | 4538 ft | 248 kts | 102° |
| 2026-05-04 11:56 | 38.32166 | -0.83934 | 4227 ft | 249 kts | 102° |
| 2026-05-04 11:57 | 38.31857 | -0.81759 | 3913 ft | 249 kts | 101° |
| 2026-05-04 11:57 | 38.31552 | -0.79601 | 3566 ft | 253 kts | 102° |
| 2026-05-04 11:57 | 38.31240 | -0.77385 | 3237 ft | 255 kts | 101° |
| 2026-05-04 11:57 | 38.30926 | -0.75162 | 2909 ft | 254 kts | 101° |
| 2026-05-04 11:58 | 38.30619 | -0.72975 | 2569 ft | 248 kts | 102° |
| 2026-05-04 11:58 | 38.30326 | -0.70885 | 2245 ft | 230 kts | 101° |
| 2026-05-04 11:58 | 38.30054 | -0.68954 | 1957 ft | 214 kts | 101° |
| 2026-05-04 11:58 | 38.29802 | -0.67155 | 1679 ft | 200 kts | 103° |
| 2026-05-04 11:59 | 38.29565 | -0.65468 | 1409 ft | 188 kts | 101° |
| 2026-05-04 11:59 | 38.29344 | -0.63879 | 1170 ft | 177 kts | 103° |
| 2026-05-04 11:59 | 38.29134 | -0.62376 | 907 ft | 168 kts | 102° |
| 2026-05-04 11:59 | 38.28943 | -0.60939 | 792 ft | 165 kts | 100° |
| 2026-05-04 12:00 | 38.28741 | -0.59478 | 542 ft | 171 kts | 105° |
| 2026-05-04 12:00 | 38.28527 | -0.58013 | 302 ft | 167 kts | 103° |
| 2026-05-04 12:00 | 38.28322 | -0.56578 | 117 ft | 157 kts | 99° |
| 2026-05-04 12:00 | 38.28165 | -0.55452 | 92 ft | 96 kts | 99° |
| 2026-05-04 12:01 | 38.28133 | -0.54957 | 75 ft | 44 kts | 77° |
| 2026-05-04 12:01 | 38.28185 | -0.54750 | 63 ft | 10 kts | 70° |
| 2026-05-04 12:02 | 38.28354 | -0.55199 | 87 ft | 14 kts | 36° |
| 2026-05-04 12:03 | 38.28430 | -0.55165 | 89 ft | 9 kts | 313° |
| 2026-05-04 12:03 | 38.28446 | -0.55244 | 87 ft | 10 kts | 278° |
| 2026-05-04 12:03 | 38.28463 | -0.55344 | 92 ft | 7 kts | 297° |
| 2026-05-04 12:03 | 38.28521 | -0.55351 | 89 ft | 8 kts | 8° |
| 2026-05-04 12:04 | 38.28542 | -0.55347 | 88 ft | 0 kts | 9° |